createdAt,value
2023-04-23T00:01:59.692Z,13.77
2023-04-23T00:04:28.884Z,13.74
2023-04-23T00:06:55.900Z,13.66
2023-04-23T00:09:23.891Z,13.68
2023-04-23T00:11:50.777Z,13.61
2023-04-23T00:14:17.562Z,13.62
2023-04-23T00:16:44.531Z,13.60
2023-04-23T00:19:11.392Z,13.56
2023-04-23T00:21:38.036Z,13.58
2023-04-23T00:24:04.919Z,13.56
2023-04-23T00:26:31.516Z,13.54
2023-04-23T00:28:58.251Z,13.48
2023-04-23T00:31:27.170Z,13.52
2023-04-23T00:33:54.156Z,13.47
2023-04-23T00:36:20.778Z,13.44
2023-04-23T00:38:48.101Z,13.40
2023-04-23T00:41:15.436Z,13.34
2023-04-23T00:43:42.116Z,13.21
2023-04-23T00:46:09.128Z,13.23
2023-04-23T00:48:37.154Z,13.24
2023-04-23T00:51:06.114Z,13.14
2023-04-23T00:53:34.037Z,13.02
2023-04-23T00:56:04.250Z,13.01
2023-04-23T00:58:31.938Z,12.96
2023-04-23T01:00:59.081Z,13.03
2023-04-23T01:03:27.376Z,12.91
2023-04-23T01:05:54.295Z,12.97
2023-04-23T01:08:22.856Z,12.93
2023-04-23T01:10:49.774Z,12.91
2023-04-23T01:13:16.933Z,12.99
2023-04-23T01:15:45.094Z,12.88
2023-04-23T01:18:13.302Z,12.86
2023-04-23T01:20:39.996Z,12.66
2023-04-23T01:23:06.947Z,12.71
2023-04-23T01:25:33.617Z,12.77
2023-04-23T01:28:00.344Z,12.76
2023-04-23T01:30:27.734Z,12.61
2023-04-23T01:32:58.002Z,12.62
2023-04-23T01:35:25.890Z,12.56
2023-04-23T01:37:55.120Z,12.60
2023-04-23T01:40:21.737Z,12.63
2023-04-23T01:42:49.310Z,12.67
2023-04-23T01:45:19.682Z,12.66
2023-04-23T01:47:47.736Z,12.65
2023-04-23T01:50:14.934Z,12.70
2023-04-23T01:52:42.173Z,12.69
2023-04-23T01:55:09.568Z,12.56
2023-04-23T01:57:36.461Z,12.58
2023-04-23T02:00:08.468Z,12.61
2023-04-23T02:02:36.261Z,12.63
2023-04-23T02:05:07.039Z,12.60
2023-04-23T02:07:34.890Z,12.57
2023-04-23T02:10:02.504Z,12.37
2023-04-23T02:12:29.088Z,12.16
2023-04-23T02:14:55.773Z,12.27
2023-04-23T02:17:25.321Z,12.33
2023-04-23T02:19:52.002Z,12.27
2023-04-23T02:22:18.725Z,12.35
2023-04-23T02:24:47.303Z,12.36
2023-04-23T02:27:13.990Z,12.37
2023-04-23T02:29:41.284Z,12.37
2023-04-23T02:32:08.617Z,12.45
2023-04-23T02:34:35.735Z,12.42
2023-04-23T02:37:04.972Z,12.46
2023-04-23T02:39:32.414Z,12.44
2023-04-23T02:41:59.370Z,12.43
2023-04-23T02:44:26.198Z,12.45
2023-04-23T02:46:53.249Z,12.46
2023-04-23T02:49:20.292Z,12.46
2023-04-23T02:51:47.393Z,12.42
2023-04-23T02:54:14.131Z,12.43
2023-04-23T02:56:40.997Z,12.44
2023-04-23T02:59:08.485Z,12.43
2023-04-23T03:01:35.121Z,12.38
2023-04-23T03:04:02.063Z,12.42
2023-04-23T03:06:29.030Z,12.44
2023-04-23T03:08:56.133Z,12.43
2023-04-23T03:11:22.875Z,12.44
2023-04-23T03:13:49.928Z,12.44
2023-04-23T03:16:17.052Z,12.43
2023-04-23T03:18:43.913Z,12.43
2023-04-23T03:21:10.619Z,12.46
2023-04-23T03:23:37.231Z,12.41
2023-04-23T03:26:04.223Z,12.26
2023-04-23T03:28:31.592Z,12.27
2023-04-23T03:30:58.360Z,12.29
2023-04-23T03:33:25.005Z,12.32
2023-04-23T03:35:51.683Z,12.36
2023-04-23T03:38:18.404Z,12.32
2023-04-23T03:40:45.343Z,12.26
2023-04-23T03:43:12.301Z,12.13
2023-04-23T03:45:39.012Z,12.15
2023-04-23T03:48:05.685Z,12.00
2023-04-23T03:50:34.539Z,11.91
2023-04-23T03:53:01.531Z,11.58
2023-04-23T03:55:28.218Z,11.63
2023-04-23T03:57:55.223Z,11.74
2023-04-23T04:00:21.948Z,11.72
2023-04-23T04:02:48.697Z,11.62
2023-04-23T04:05:16.396Z,11.62
2023-04-23T04:07:43.289Z,11.67
2023-04-23T04:10:10.215Z,11.71
2023-04-23T04:12:36.869Z,11.79
2023-04-23T04:15:05.002Z,11.85
2023-04-23T04:17:31.676Z,11.84
2023-04-23T04:19:58.416Z,11.84
2023-04-23T04:22:25.053Z,11.80
2023-04-23T04:24:52.777Z,11.69
2023-04-23T04:27:19.517Z,11.64
2023-04-23T04:29:46.213Z,11.69
2023-04-23T04:32:13.799Z,11.78
2023-04-23T04:34:40.950Z,11.78
2023-04-23T04:37:07.846Z,11.72
2023-04-23T04:39:34.524Z,11.66
2023-04-23T04:42:03.001Z,11.54
2023-04-23T04:44:30.724Z,11.41
2023-04-23T04:46:57.618Z,11.21
2023-04-23T04:49:24.498Z,11.14
2023-04-23T04:51:51.413Z,11.14
2023-04-23T04:54:18.236Z,11.10
2023-04-23T04:56:44.927Z,11.05
2023-04-23T04:59:11.550Z,11.09
2023-04-23T05:01:38.444Z,11.14
2023-04-23T05:04:05.376Z,11.09
2023-04-23T05:06:33.146Z,11.07
2023-04-23T05:08:59.855Z,11.04
2023-04-23T05:11:26.632Z,11.00
2023-04-23T05:13:53.384Z,11.11
2023-04-23T05:16:20.101Z,11.20
2023-04-23T05:18:46.849Z,11.27
2023-04-23T05:21:15.867Z,11.30
2023-04-23T05:23:42.481Z,11.38
2023-04-23T05:26:09.188Z,11.41
2023-04-23T05:28:36.639Z,11.42
2023-04-23T05:31:03.448Z,11.37
2023-04-23T05:33:33.440Z,11.30
2023-04-23T05:36:06.317Z,11.20
2023-04-23T05:38:33.341Z,11.13
2023-04-23T05:41:00.395Z,11.11
2023-04-23T05:43:27.095Z,11.13
2023-04-23T05:45:53.751Z,11.13
2023-04-23T05:48:20.609Z,11.16
2023-04-23T05:50:49.350Z,11.17
2023-04-23T05:53:16.014Z,11.19
2023-04-23T05:55:42.647Z,11.17
2023-04-23T05:58:09.362Z,11.04
2023-04-23T06:00:37.078Z,11.14
2023-04-23T06:03:03.993Z,11.24
2023-04-23T06:05:30.856Z,11.27
2023-04-23T06:07:58.221Z,11.34
2023-04-23T06:10:25.121Z,11.10
2023-04-23T06:12:54.102Z,11.18
2023-04-23T06:15:20.973Z,11.08
2023-04-23T06:17:47.665Z,11.15
2023-04-23T06:20:14.418Z,11.21
2023-04-23T06:22:41.061Z,11.13
2023-04-23T06:25:08.320Z,11.22
2023-04-23T06:27:34.987Z,11.23
2023-04-23T06:30:01.672Z,11.23
2023-04-23T06:32:28.258Z,11.21
2023-04-23T06:35:01.643Z,11.30
2023-04-23T06:37:30.860Z,10.90
2023-04-23T06:39:59.042Z,10.97
2023-04-23T06:42:25.768Z,11.09
2023-04-23T06:44:52.461Z,11.30
2023-04-23T06:47:19.969Z,11.45
2023-04-23T06:49:46.692Z,11.54
2023-04-23T06:52:13.420Z,11.62
2023-04-23T06:54:40.314Z,11.66
2023-04-23T06:57:07.295Z,11.85
2023-04-23T06:59:34.041Z,11.92
2023-04-23T07:02:01.050Z,12.16
2023-04-23T07:04:28.056Z,12.12
2023-04-23T07:06:55.261Z,12.12
2023-04-23T07:09:23.335Z,12.22
2023-04-23T07:11:51.089Z,12.22
2023-04-23T07:14:17.739Z,12.40
2023-04-23T07:16:44.424Z,12.34
2023-04-23T07:19:11.407Z,12.73
2023-04-23T07:21:38.082Z,12.71
2023-04-23T07:24:07.325Z,12.45
2023-04-23T07:26:34.435Z,12.42
2023-04-23T07:29:01.460Z,12.54
2023-04-23T07:31:28.639Z,12.61
2023-04-23T07:33:56.329Z,12.74
2023-04-23T07:36:23.224Z,12.66
2023-04-23T07:38:51.192Z,12.76
2023-04-23T07:41:18.461Z,12.74
2023-04-23T07:43:45.370Z,13.01
2023-04-23T07:46:12.557Z,13.10
2023-04-23T07:48:39.351Z,13.27
2023-04-23T07:51:06.789Z,13.04
2023-04-23T07:53:33.662Z,12.91
2023-04-23T07:56:00.610Z,12.67
2023-04-23T07:58:27.688Z,12.94
2023-04-23T08:00:54.440Z,12.82
2023-04-23T08:03:21.711Z,13.05
2023-04-23T08:05:48.501Z,12.96
2023-04-23T08:08:15.158Z,12.62
2023-04-23T08:10:41.951Z,13.00
2023-04-23T08:13:08.701Z,13.07
2023-04-23T08:15:35.341Z,13.30
2023-04-23T08:18:03.275Z,13.57
2023-04-23T08:20:30.003Z,13.65
2023-04-23T08:22:56.839Z,13.98
2023-04-23T08:25:23.682Z,13.72
2023-04-23T08:27:50.312Z,13.87
2023-04-23T08:30:17.029Z,13.88
2023-04-23T08:32:43.697Z,13.98
2023-04-23T08:35:10.591Z,14.22
2023-04-23T08:37:39.105Z,14.43
2023-04-23T08:40:07.649Z,14.01
2023-04-23T08:42:45.247Z,14.02
2023-04-23T08:45:13.339Z,14.11
2023-04-23T08:47:44.726Z,14.25
2023-04-23T08:50:13.573Z,14.26
2023-04-23T08:52:48.099Z,14.17
2023-04-23T08:55:16.485Z,14.26
2023-04-23T08:57:43.140Z,14.53
2023-04-23T09:00:13.036Z,14.43
2023-04-23T09:02:45.735Z,14.47
2023-04-23T09:05:13.513Z,14.53
2023-04-23T09:07:40.956Z,14.47
2023-04-23T09:10:09.230Z,14.51
2023-04-23T09:12:36.507Z,14.30
2023-04-23T09:15:11.245Z,14.08
2023-04-23T09:17:46.378Z,13.84
2023-04-23T09:20:14.966Z,13.93
2023-04-23T09:22:47.094Z,14.13
2023-04-23T09:25:17.748Z,14.30
2023-04-23T09:27:45.278Z,14.44
2023-04-23T09:30:12.602Z,14.60
2023-04-23T09:32:42.265Z,14.67
2023-04-23T09:35:11.048Z,14.84
2023-04-23T09:37:42.126Z,14.98
2023-04-23T09:40:14.236Z,14.97
2023-04-23T09:42:41.095Z,14.87
2023-04-23T09:45:11.451Z,14.88
2023-04-23T09:47:48.170Z,14.87
2023-04-23T09:50:15.770Z,15.16
2023-04-23T09:52:42.732Z,15.41
2023-04-23T09:55:09.677Z,15.54
2023-04-23T09:57:38.412Z,15.36
2023-04-23T10:00:17.382Z,15.79
2023-04-23T10:02:49.316Z,15.63
2023-04-23T10:05:25.013Z,15.56
2023-04-23T10:07:56.872Z,15.59
2023-04-23T10:10:24.031Z,15.61
2023-04-23T10:12:56.903Z,15.79
2023-04-23T10:15:26.631Z,15.88
2023-04-23T10:17:54.483Z,16.24
2023-04-23T10:20:23.264Z,16.50
2023-04-23T10:22:50.209Z,16.34
2023-04-23T10:25:19.701Z,16.08
2023-04-23T10:27:52.641Z,15.94
2023-04-23T10:30:20.973Z,16.09
2023-04-23T10:32:49.839Z,15.89
2023-04-23T10:35:16.658Z,16.01
2023-04-23T10:37:46.521Z,16.08
2023-04-23T10:40:15.256Z,16.00
2023-04-23T10:42:44.441Z,16.18
2023-04-23T10:47:49.114Z,16.72
2023-04-23T10:50:22.523Z,17.20
2023-04-23T10:52:53.571Z,16.83
2023-04-23T10:55:23.104Z,16.97
2023-04-23T10:58:05.487Z,17.06
2023-04-23T11:00:58.217Z,17.14
2023-04-23T11:03:39.765Z,17.32
2023-04-23T11:06:12.496Z,17.51
2023-04-23T11:08:52.767Z,17.48
2023-04-23T11:11:24.849Z,17.76
2023-04-23T11:13:54.901Z,17.76
2023-04-23T11:16:23.693Z,18.08
2023-04-23T11:19:05.193Z,17.94
2023-04-23T11:22:03.151Z,17.29
2023-04-23T11:24:33.388Z,17.48
2023-04-23T11:27:00.458Z,17.50
2023-04-23T11:29:28.561Z,17.77
2023-04-23T11:34:26.260Z,18.08
2023-04-23T11:36:57.609Z,17.60
2023-04-23T11:39:24.727Z,18.08
2023-04-23T11:41:52.845Z,17.86
2023-04-23T11:44:21.331Z,18.32
2023-04-23T11:46:49.598Z,18.47
2023-04-23T11:49:18.823Z,18.39
2023-04-23T11:51:46.562Z,18.07
2023-04-23T11:54:14.667Z,18.58
2023-04-23T11:56:41.859Z,18.45
2023-04-23T11:59:09.037Z,18.22
2023-04-23T12:01:46.383Z,18.32
2023-04-23T12:04:19.049Z,18.16
2023-04-23T12:06:47.256Z,18.60
2023-04-23T12:09:15.069Z,19.51
2023-04-23T12:11:43.389Z,19.10
2023-04-23T12:14:11.437Z,19.02
2023-04-23T12:16:43.580Z,18.99
2023-04-23T12:19:15.976Z,19.14
2023-04-23T12:21:55.883Z,19.21
2023-04-23T12:24:52.304Z,19.53
2023-04-23T12:27:22.090Z,19.28
2023-04-23T12:29:50.864Z,19.36
2023-04-23T12:32:19.367Z,18.99
2023-04-23T12:34:55.393Z,19.08
2023-04-23T12:37:26.906Z,19.23
2023-04-23T12:39:56.406Z,19.19
2023-04-23T12:42:22.977Z,19.07
2023-04-23T12:44:51.703Z,19.20
2023-04-23T12:47:21.438Z,18.92
2023-04-23T12:49:53.298Z,18.76
2023-04-23T12:52:20.479Z,18.64
2023-04-23T12:54:47.087Z,18.80
2023-04-23T12:57:18.278Z,18.90
2023-04-23T12:59:46.430Z,18.93
2023-04-23T13:02:13.404Z,19.08
2023-04-23T13:04:40.076Z,19.57
2023-04-23T13:07:06.879Z,19.58
2023-04-23T13:09:36.046Z,19.21
2023-04-23T13:12:02.647Z,19.43
2023-04-23T13:14:29.255Z,19.17
2023-04-23T13:16:57.988Z,19.19
2023-04-23T13:19:25.219Z,18.92
2023-04-23T13:21:51.885Z,18.99
2023-04-23T13:24:18.492Z,18.68
2023-04-23T13:26:45.143Z,18.51
2023-04-23T13:29:11.955Z,17.83
2023-04-23T13:31:38.642Z,18.24
2023-04-23T13:34:05.417Z,18.48
2023-04-23T13:36:32.075Z,18.86
2023-04-23T13:38:58.741Z,19.05
2023-04-23T13:41:25.464Z,18.98
2023-04-23T13:43:52.807Z,18.94
2023-04-23T13:46:19.785Z,18.87
2023-04-23T13:48:46.692Z,18.96
2023-04-23T13:51:32.627Z,19.14
2023-04-23T13:53:59.947Z,18.92
2023-04-23T13:56:30.687Z,19.24
2023-04-23T13:59:18.066Z,19.26
2023-04-23T14:01:47.211Z,19.12
2023-04-23T14:04:14.071Z,19.24
2023-04-23T14:06:40.704Z,19.26
2023-04-23T14:09:07.331Z,19.26
2023-04-23T14:11:34.083Z,19.07
2023-04-23T14:14:01.286Z,19.37
2023-04-23T14:16:27.895Z,19.90
2023-04-23T14:18:54.616Z,20.03
2023-04-23T14:21:22.445Z,19.98
2023-04-23T14:24:22.258Z,19.64
2023-04-23T14:26:50.149Z,19.62
2023-04-23T14:29:25.396Z,19.21
2023-04-23T14:31:52.534Z,18.98
2023-04-23T14:34:19.138Z,18.81
2023-04-23T14:36:49.186Z,18.56
2023-04-23T14:39:16.123Z,18.87
2023-04-23T14:41:42.744Z,18.72
2023-04-23T14:44:09.409Z,18.34
2023-04-23T14:46:36.203Z,18.26
2023-04-23T14:49:02.907Z,18.63
2023-04-23T14:51:29.750Z,18.66
2023-04-23T14:53:56.949Z,18.62
2023-04-23T14:56:23.925Z,18.63
2023-04-23T14:58:50.599Z,19.08
2023-04-23T15:01:17.372Z,19.69
2023-04-23T15:03:45.329Z,19.88
2023-04-23T15:06:12.235Z,20.30
2023-04-23T15:08:38.827Z,20.18
2023-04-23T15:11:13.030Z,20.45
2023-04-23T15:14:01.358Z,19.86
2023-04-23T15:16:47.647Z,20.22
2023-04-23T15:19:17.934Z,19.61
2023-04-23T15:21:45.249Z,20.20
2023-04-23T15:24:11.884Z,20.56
2023-04-23T15:26:39.116Z,20.05
2023-04-23T15:29:09.082Z,20.03
2023-04-23T15:31:36.974Z,20.34
2023-04-23T15:34:06.254Z,20.17
2023-04-23T15:36:34.875Z,20.27
2023-04-23T15:39:01.601Z,20.06
2023-04-23T15:41:28.768Z,19.97
2023-04-23T15:43:55.627Z,19.91
2023-04-23T15:46:22.203Z,19.31
2023-04-23T15:48:48.847Z,19.45
2023-04-23T15:51:16.176Z,19.80
2023-04-23T15:53:42.830Z,19.78
2023-04-23T15:56:09.446Z,19.28
2023-04-23T15:58:36.089Z,19.18
2023-04-23T16:01:03.183Z,19.12
2023-04-23T16:03:30.048Z,19.16
2023-04-23T16:05:56.926Z,19.13
2023-04-23T16:08:23.542Z,18.95
2023-04-23T16:10:50.162Z,18.22
2023-04-23T16:13:16.807Z,18.48
2023-04-23T16:15:43.535Z,18.67
2023-04-23T16:18:10.276Z,18.49
2023-04-23T16:20:36.926Z,18.12
2023-04-23T16:23:03.675Z,18.28
2023-04-23T16:25:30.717Z,17.89
2023-04-23T16:27:57.393Z,18.14
2023-04-23T16:30:24.688Z,17.86
2023-04-23T16:32:51.553Z,18.02
2023-04-23T16:35:18.417Z,18.21
2023-04-23T16:37:45.037Z,18.06
2023-04-23T16:40:12.096Z,17.76
2023-04-23T16:42:39.204Z,17.68
2023-04-23T16:45:06.164Z,17.56
2023-04-23T16:47:33.371Z,17.54
2023-04-23T16:50:00.500Z,17.29
2023-04-23T16:52:27.197Z,17.27
2023-04-23T16:54:53.913Z,17.31
2023-04-23T16:57:20.815Z,17.14
2023-04-23T16:59:47.516Z,17.08
2023-04-23T17:02:14.218Z,17.04
2023-04-23T17:04:41.070Z,17.09
2023-04-23T17:07:08.067Z,17.18
2023-04-23T17:09:34.988Z,17.01
2023-04-23T17:12:02.146Z,17.00
2023-04-23T17:14:28.773Z,16.89
2023-04-23T17:16:56.255Z,16.84
2023-04-23T17:19:22.979Z,16.88
2023-04-23T17:21:49.743Z,16.83
2023-04-23T17:24:16.401Z,16.83
2023-04-23T17:26:43.665Z,16.75
2023-04-23T17:29:10.960Z,16.76
2023-04-23T17:31:38.420Z,16.75
2023-04-23T17:34:05.524Z,16.76
2023-04-23T17:36:32.288Z,16.69
2023-04-23T17:38:59.016Z,16.53
2023-04-23T17:41:25.838Z,16.55
2023-04-23T17:43:52.494Z,16.47
2023-04-23T17:46:19.375Z,16.39
2023-04-23T17:48:46.354Z,16.34
2023-04-23T17:51:13.066Z,16.32
2023-04-23T17:53:39.911Z,16.26
2023-04-23T17:56:06.508Z,16.27
2023-04-23T17:58:33.227Z,16.13
2023-04-23T18:01:00.314Z,16.09
2023-04-23T18:03:27.990Z,16.13
2023-04-23T18:05:54.917Z,16.12
2023-04-23T18:08:21.647Z,16.03
2023-04-23T18:10:48.531Z,15.89
2023-04-23T18:13:15.303Z,15.85
2023-04-23T18:15:42.446Z,15.77
2023-04-23T18:18:09.545Z,15.74
2023-04-23T18:20:38.546Z,15.61
2023-04-23T18:23:06.602Z,15.62
2023-04-23T18:25:33.734Z,15.57
2023-04-23T18:28:00.425Z,15.49
2023-04-23T18:30:27.271Z,15.41
2023-04-23T18:33:07.665Z,15.24
2023-04-23T18:35:34.516Z,15.19
2023-04-23T18:38:09.595Z,15.14
2023-04-23T18:40:36.291Z,15.07
2023-04-23T18:43:02.912Z,15.02
2023-04-23T18:45:29.568Z,14.90
2023-04-23T18:48:24.096Z,14.84
2023-04-23T18:50:51.083Z,14.75
2023-04-23T18:53:19.091Z,14.67
2023-04-23T18:55:46.949Z,14.59
2023-04-23T18:58:13.519Z,14.55
2023-04-23T19:00:40.724Z,14.47
2023-04-23T19:03:19.635Z,14.44
2023-04-23T19:05:52.890Z,14.38
2023-04-23T19:08:19.493Z,14.35
2023-04-23T19:10:46.144Z,14.33
2023-04-23T19:13:12.743Z,14.32
2023-04-23T19:15:39.501Z,14.30
2023-04-23T19:18:06.353Z,14.25
2023-04-23T19:20:33.018Z,14.23
2023-04-23T19:22:59.602Z,14.22
2023-04-23T19:25:26.303Z,14.21
2023-04-23T19:27:52.916Z,14.18
2023-04-23T19:30:19.544Z,14.17
2023-04-23T19:32:46.155Z,14.15
2023-04-23T19:35:13.646Z,14.12
2023-04-23T19:37:40.229Z,14.10
2023-04-23T19:40:07.651Z,14.11
2023-04-23T19:42:34.324Z,14.11
2023-04-23T19:45:01.070Z,14.08
2023-04-23T19:47:27.822Z,14.06
2023-04-23T19:49:54.733Z,14.03
2023-04-23T19:52:24.023Z,13.98
2023-04-23T19:54:50.670Z,13.76
2023-04-23T19:57:19.300Z,13.63
2023-04-23T19:59:46.477Z,13.77
2023-04-23T20:02:13.584Z,13.83
2023-04-23T20:04:41.362Z,13.73
2023-04-23T20:07:08.333Z,13.66
2023-04-23T20:09:35.627Z,13.65
2023-04-23T20:12:02.946Z,13.60
2023-04-23T20:14:29.982Z,13.59
2023-04-23T20:16:57.682Z,13.57
2023-04-23T20:19:27.110Z,13.53
2023-04-23T20:21:54.047Z,13.50
2023-04-23T20:24:23.433Z,13.55
2023-04-23T20:26:50.012Z,13.45
2023-04-23T20:29:16.827Z,13.36
2023-04-23T20:31:43.661Z,13.28
2023-04-23T20:34:11.052Z,13.07
2023-04-23T20:36:39.021Z,12.93
2023-04-23T20:39:05.738Z,12.80
2023-04-23T20:41:36.568Z,12.83
2023-04-23T20:44:05.283Z,12.98
2023-04-23T20:46:32.746Z,13.01
2023-04-23T20:49:00.950Z,12.90
2023-04-23T20:51:33.246Z,13.03
2023-04-23T20:54:00.169Z,13.04
2023-04-23T20:56:27.164Z,13.03
2023-04-23T20:58:53.771Z,12.91
2023-04-23T21:01:20.554Z,12.55
2023-04-23T21:03:47.294Z,12.47
2023-04-23T21:06:14.101Z,12.39
2023-04-23T21:08:42.730Z,12.43
2023-04-23T21:11:13.708Z,12.44
2023-04-23T21:13:40.833Z,12.37
2023-04-23T21:16:07.558Z,12.40
2023-04-23T21:18:34.501Z,12.27
2023-04-23T21:21:01.248Z,12.33
2023-04-23T21:23:27.892Z,12.38
2023-04-23T21:25:54.686Z,12.39
2023-04-23T21:28:21.464Z,12.29
2023-04-23T21:30:50.913Z,12.31
2023-04-23T21:33:21.857Z,12.13
2023-04-23T21:35:50.782Z,12.15
2023-04-23T21:38:18.445Z,12.25
2023-04-23T21:40:45.283Z,12.13
2023-04-23T21:43:12.346Z,12.20
2023-04-23T21:45:39.258Z,12.26
2023-04-23T21:48:06.166Z,12.26
2023-04-23T21:50:33.564Z,12.19
2023-04-23T21:53:00.606Z,12.07
2023-04-23T21:55:28.580Z,12.04
2023-04-23T21:58:03.137Z,11.99
2023-04-23T22:00:33.270Z,11.98
2023-04-23T22:03:00.193Z,11.96
2023-04-23T22:05:28.470Z,11.93
2023-04-23T22:07:56.952Z,11.86
2023-04-23T22:10:23.937Z,11.89
2023-04-23T22:12:50.907Z,11.88
2023-04-23T22:15:19.232Z,11.91
2023-04-23T22:17:50.424Z,11.94
2023-04-23T22:20:19.150Z,11.91
2023-04-23T22:22:46.014Z,11.84
2023-04-23T22:25:13.108Z,11.82
2023-04-23T22:27:41.274Z,11.73
2023-04-23T22:30:09.919Z,11.67
2023-04-23T22:32:38.022Z,11.67
2023-04-23T22:35:06.356Z,11.71
2023-04-23T22:37:33.586Z,11.69
2023-04-23T22:40:00.899Z,11.64
2023-04-23T22:42:27.519Z,11.49
2023-04-23T22:44:54.143Z,11.49
2023-04-23T22:47:21.161Z,11.53
2023-04-23T22:49:47.962Z,11.53
2023-04-23T22:52:15.677Z,11.53
2023-04-23T22:54:43.328Z,11.54
2023-04-23T22:57:10.529Z,11.51
2023-04-23T22:59:40.992Z,11.53
2023-04-23T23:02:07.863Z,11.46
2023-04-23T23:04:37.792Z,11.42
2023-04-23T23:07:05.967Z,11.36
2023-04-23T23:09:32.920Z,11.38
2023-04-23T23:12:03.918Z,11.39
2023-04-23T23:14:31.835Z,11.40
2023-04-23T23:16:58.980Z,11.40
2023-04-23T23:19:29.086Z,11.40
2023-04-23T23:21:55.733Z,11.40
2023-04-23T23:24:22.931Z,11.36
2023-04-23T23:26:50.424Z,11.40
2023-04-23T23:29:17.142Z,11.42
2023-04-23T23:31:44.229Z,11.42
2023-04-23T23:34:11.413Z,11.43
2023-04-23T23:36:38.045Z,11.41
2023-04-23T23:39:04.728Z,11.42
2023-04-23T23:41:31.344Z,11.39
2023-04-23T23:43:57.948Z,11.41
2023-04-23T23:46:25.492Z,11.40
2023-04-23T23:48:52.250Z,11.38
2023-04-23T23:51:19.085Z,11.39
2023-04-23T23:53:45.867Z,11.39
2023-04-23T23:56:12.511Z,11.40
2023-04-23T23:58:39.249Z,11.39
